Time;durP1;ratioP1;P1;durP2;ratioP2;P2;SDS_P1;SDS_P2;PMS_P1;PMS_P2;Temp;Humidity;BMP_temperature;BMP_pressure;BME280_temperature;BME280_humidity;BME280_pressure;Samples;Min_cycle;Max_cycle;Signal;HPM_P1;HPM_P2
2023/03/22 00:01:10;;;;;;;6.73;5.53;;;10.40;99.90;;;;;;5077331;28;20468;-60
2023/03/22 00:03:37;;;;;;;7.80;6.43;;;10.40;99.90;;;;;;5036928;28;20460;-60
2023/03/22 00:06:07;;;;;;;10.13;6.80;;;10.40;99.90;;;;;;5037618;28;20497;-58
2023/03/22 00:08:34;;;;;;;11.40;6.83;;;10.40;99.90;;;;;;5059940;28;20468;-58
2023/03/22 00:11:01;;;;;;;6.67;5.97;;;10.40;99.90;;;;;;5080193;28;20428;-59
2023/03/22 00:13:28;;;;;;;10.73;8.03;;;10.40;99.90;;;;;;5082053;28;20461;-60
2023/03/22 00:15:56;;;;;;;13.50;7.97;;;10.40;99.90;;;;;;5083321;28;20751;-60
2023/03/22 00:18:24;;;;;;;8.83;6.57;;;10.40;99.90;;;;;;5083546;28;20465;-60
2023/03/22 00:20:53;;;;;;;12.63;7.20;;;10.40;99.90;;;;;;5082918;28;20488;-60
2023/03/22 00:23:22;;;;;;;10.30;7.00;;;10.40;99.90;;;;;;5082896;28;20457;-59
2023/03/22 00:25:49;;;;;;;9.97;6.20;;;10.40;99.90;;;;;;5082657;28;20515;-60
2023/03/22 00:28:17;;;;;;;10.67;7.60;;;10.40;99.90;;;;;;5082163;28;20485;-60
2023/03/22 00:30:51;;;;;;;9.00;6.90;;;10.40;99.90;;;;;;5083599;28;20564;-58
2023/03/22 00:33:18;;;;;;;10.13;7.80;;;10.40;99.90;;;;;;5082917;28;20461;-59
2023/03/22 00:35:49;;;;;;;9.50;7.20;;;10.50;99.90;;;;;;5083158;28;20469;-58
2023/03/22 00:38:16;;;;;;;8.63;7.17;;;10.50;99.90;;;;;;5083078;28;20465;-60
2023/03/22 00:40:44;;;;;;;8.67;7.30;;;10.50;99.90;;;;;;5082640;28;20461;-60
2023/03/22 00:43:12;;;;;;;9.60;6.90;;;10.50;99.90;;;;;;5082355;28;20461;-59
2023/03/22 00:45:39;;;;;;;15.07;8.20;;;10.50;99.90;;;;;;5081971;28;20468;-57
2023/03/22 00:48:08;;;;;;;8.93;6.90;;;10.50;99.90;;;;;;5080579;28;20472;-58
2023/03/22 00:50:35;;;;;;;9.43;7.27;;;10.40;99.90;;;;;;5079591;28;20484;-59
2023/03/22 00:53:02;;;;;;;9.50;7.97;;;10.40;99.90;;;;;;5081992;28;20766;-60
2023/03/22 00:55:30;;;;;;;10.63;8.00;;;10.50;99.90;;;;;;5081710;28;20458;-60
2023/03/22 00:57:58;;;;;;;10.63;7.70;;;10.40;99.90;;;;;;5083239;28;20468;-58
2023/03/22 01:00:26;;;;;;;9.43;8.20;;;10.40;99.90;;;;;;5082154;28;20559;-57
2023/03/22 01:02:58;;;;;;;9.57;8.50;;;10.40;99.90;;;;;;5081153;28;20465;-60
2023/03/22 01:05:27;;;;;;;10.83;9.67;;;10.40;99.90;;;;;;5081437;28;20499;-60
2023/03/22 01:07:55;;;;;;;12.43;8.90;;;10.40;99.90;;;;;;5081154;28;20547;-59
2023/03/22 01:10:23;;;;;;;11.20;8.40;;;10.40;99.90;;;;;;5064004;28;20466;-57
2023/03/22 01:12:50;;;;;;;9.67;8.67;;;10.40;99.90;;;;;;5061852;28;20480;-58
2023/03/22 01:15:19;;;;;;;9.90;7.93;;;10.40;99.90;;;;;;5062135;28;20462;-59
2023/03/22 01:17:46;;;;;;;8.87;7.53;;;10.30;99.90;;;;;;5062290;28;20496;-56
2023/03/22 01:20:13;;;;;;;10.07;9.07;;;10.10;99.90;;;;;;5062805;28;20835;-59
2023/03/22 01:22:40;;;;;;;10.27;9.17;;;10.10;99.90;;;;;;5061824;28;20454;-60
2023/03/22 01:25:08;;;;;;;10.90;8.87;;;10.00;99.90;;;;;;5062375;28;20490;-56
2023/03/22 01:27:35;;;;;;;9.70;8.60;;;10.00;99.90;;;;;;5061636;28;20775;-58
2023/03/22 01:30:03;;;;;;;11.30;8.77;;;10.00;99.90;;;;;;5062771;28;20912;-59
2023/03/22 01:32:31;;;;;;;14.93;8.93;;;10.00;99.90;;;;;;5063412;28;20469;-58
2023/03/22 01:34:59;;;;;;;14.40;9.00;;;10.00;1.00;;;;;;5061657;28;20465;-60
2023/03/22 01:37:26;;;;;;;10.90;8.40;;;9.90;1.00;;;;;;5061625;28;20536;-58
2023/03/22 01:39:53;;;;;;;10.17;8.33;;;9.90;1.00;;;;;;5061553;28;20570;-57
2023/03/22 01:42:22;;;;;;;10.63;8.80;;;9.90;1.00;;;;;;5061798;28;20462;-60
2023/03/22 01:45:36;;;;;;;10.47;9.23;;;9.80;1.00;;;;;;5062452;28;20779;-59
2023/03/22 01:48:10;;;;;;;12.77;8.60;;;9.80;1.00;;;;;;5061957;28;20458;-59
2023/03/22 01:50:41;;;;;;;16.23;10.10;;;9.80;1.00;;;;;;5062549;28;20455;-58
2023/03/22 01:53:10;;;;;;;12.60;7.90;;;9.90;1.00;;;;;;5062223;28;20512;-59
2023/03/22 01:55:38;;;;;;;10.10;8.50;;;9.90;1.00;;;;;;5061087;28;20462;-60
2023/03/22 01:58:05;;;;;;;10.97;9.23;;;9.90;1.00;;;;;;5060655;28;20454;-60
2023/03/22 02:00:33;;;;;;;10.77;9.10;;;9.90;1.00;;;;;;5063058;28;20462;-59
2023/03/22 02:03:00;;;;;;;10.70;9.40;;;9.90;1.00;;;;;;5080203;28;20453;-59
2023/03/22 02:05:31;;;;;;;13.10;9.97;;;9.90;1.00;;;;;;5078224;28;20481;-60
2023/03/22 02:07:58;;;;;;;10.70;8.90;;;9.90;1.00;;;;;;5080984;28;20541;-57
2023/03/22 02:10:27;;;;;;;10.50;9.10;;;9.90;1.00;;;;;;5081172;28;20476;-59
2023/03/22 02:13:24;;;;;;;10.27;9.20;;;9.80;1.00;;;;;;5079379;28;20468;-59
2023/03/22 02:16:01;;;;;;;11.63;9.43;;;9.70;1.00;;;;;;5064775;28;20457;-60
2023/03/22 02:18:40;;;;;;;11.03;8.60;;;9.70;1.00;;;;;;5081319;28;20459;-59
2023/03/22 02:21:49;;;;;;;10.80;9.53;;;9.70;1.00;;;;;;5081374;28;20453;-58
2023/03/22 02:24:55;;;;;;;11.77;9.40;;;9.60;1.00;;;;;;4997982;28;20469;-60
2023/03/22 02:27:42;;;;;;;20.80;10.20;;;9.60;1.00;;;;;;5060648;28;20496;-59
2023/03/22 02:30:38;;;;;;;11.73;9.50;;;9.60;1.00;;;;;;5060715;28;20461;-58
2023/03/22 02:33:29;;;;;;;12.80;9.63;;;9.70;1.00;;;;;;5056562;28;20466;-60
2023/03/22 02:36:21;;;;;;;12.07;9.60;;;9.70;1.00;;;;;;5060137;28;20458;-58
2023/03/22 02:39:07;;;;;;;13.33;10.30;;;9.80;1.00;;;;;;5039144;28;20486;-58
2023/03/22 02:41:45;;;;;;;10.77;9.53;;;9.80;1.00;;;;;;5039815;28;20463;-58
2023/03/22 02:44:19;;;;;;;12.57;10.17;;;9.80;1.00;;;;;;5057295;28;20461;-57
2023/03/22 02:46:51;;;;;;;13.13;10.97;;;9.80;1.00;;;;;;5060202;28;20520;-59
2023/03/22 02:49:23;;;;;;;13.63;10.00;;;9.80;1.00;;;;;;5040098;28;20896;-59
2023/03/22 02:51:58;;;;;;;12.23;8.70;;;9.80;1.00;;;;;;5040012;28;20459;-58
2023/03/22 02:54:33;;;;;;;10.77;9.63;;;9.80;1.00;;;;;;5063581;28;20468;-59
2023/03/22 02:57:06;;;;;;;12.20;9.60;;;9.80;1.00;;;;;;5080517;28;20862;-58
2023/03/22 02:59:37;;;;;;;13.40;10.40;;;9.80;1.00;;;;;;5077103;28;20457;-59
2023/03/22 03:02:07;;;;;;;10.50;9.23;;;9.80;1.00;;;;;;5080256;28;20465;-59
2023/03/22 03:04:37;;;;;;;11.20;10.10;;;9.70;1.00;;;;;;5076928;28;20468;-60
2023/03/22 03:07:09;;;;;;;12.17;9.90;;;9.70;1.00;;;;;;5078919;28;20943;-59
2023/03/22 03:09:40;;;;;;;11.00;9.67;;;9.60;1.00;;;;;;5079629;28;20778;-61
2023/03/22 03:12:13;;;;;;;11.40;10.20;;;9.60;1.00;;;;;;5079225;28;20559;-59
2023/03/22 03:14:40;;;;;;;12.20;9.20;;;9.60;1.00;;;;;;5077543;28;20465;-59
2023/03/22 03:17:20;;;;;;;12.37;9.90;;;9.50;1.00;;;;;;5076866;28;20461;-59
2023/03/22 03:20:01;;;;;;;12.60;10.30;;;9.50;1.00;;;;;;5079445;28;20468;-59
2023/03/22 03:22:45;;;;;;;12.13;9.37;;;9.40;1.00;;;;;;5079426;28;20465;-59
2023/03/22 03:25:22;;;;;;;12.27;10.03;;;9.40;1.00;;;;;;5078953;28;20468;-60
2023/03/22 03:27:58;;;;;;;14.07;10.90;;;9.30;1.00;;;;;;5078987;28;20472;-58
2023/03/22 03:30:30;;;;;;;12.60;11.40;;;9.30;1.00;;;;;;5078282;28;20469;-60
2023/03/22 03:33:03;;;;;;;13.60;9.63;;;9.20;1.00;;;;;;5078519;28;20457;-59
2023/03/22 03:35:36;;;;;;;13.77;9.57;;;9.20;1.00;;;;;;5078730;28;20480;-57
2023/03/22 03:38:08;;;;;;;13.20;11.00;;;9.10;1.00;;;;;;5077805;28;20461;-59
2023/03/22 03:40:40;;;;;;;12.50;9.03;;;9.10;1.00;;;;;;5078350;28;20951;-60
2023/03/22 03:43:08;;;;;;;10.70;9.53;;;9.10;1.00;;;;;;5079381;28;20472;-59
2023/03/22 03:45:37;;;;;;;11.60;9.73;;;9.00;1.00;;;;;;5077696;28;20500;-60
2023/03/22 03:48:08;;;;;;;12.03;9.30;;;9.00;1.00;;;;;;5060366;28;20875;-58
2023/03/22 03:50:35;;;;;;;13.47;10.40;;;9.00;1.00;;;;;;5058988;28;20469;-60
2023/03/22 03:53:03;;;;;;;9.93;8.43;;;8.90;1.00;;;;;;5058511;28;20462;-60
2023/03/22 03:55:31;;;;;;;12.57;9.80;;;8.90;1.00;;;;;;5058624;28;20484;-59
2023/03/22 03:58:00;;;;;;;12.87;9.20;;;8.90;1.00;;;;;;5072508;28;20461;-57
2023/03/22 04:00:27;;;;;;;16.37;9.67;;;8.90;1.00;;;;;;5078415;28;20917;-60
2023/03/22 04:02:54;;;;;;;12.70;9.93;;;8.90;1.00;;;;;;5077778;28;20734;-59
2023/03/22 04:05:21;;;;;;;11.70;9.53;;;8.80;1.00;;;;;;5067421;28;20502;-61
2023/03/22 04:07:48;;;;;;;13.53;10.00;;;8.80;1.00;;;;;;5072196;28;20465;-59
2023/03/22 04:10:15;;;;;;;11.50;9.47;;;8.80;1.00;;;;;;5078651;28;20461;-61
2023/03/22 04:12:42;;;;;;;11.47;9.30;;;8.80;1.00;;;;;;5077712;28;20472;-59
2023/03/22 04:15:12;;;;;;;12.67;9.70;;;8.80;1.00;;;;;;5077004;28;20890;-60
2023/03/22 04:17:39;;;;;;;12.50;10.90;;;8.80;1.00;;;;;;5078538;28;20457;-60
2023/03/22 04:20:09;;;;;;;12.20;10.00;;;8.80;1.00;;;;;;5069281;28;20752;-59
2023/03/22 04:22:37;;;;;;;13.00;10.07;;;8.80;1.00;;;;;;5058486;28;20462;-60
2023/03/22 04:25:05;;;;;;;11.50;9.87;;;8.70;1.00;;;;;;5058061;28;20466;-59
2023/03/22 04:27:32;;;;;;;13.40;10.03;;;8.70;1.00;;;;;;5057209;28;20493;-59
2023/03/22 04:29:59;;;;;;;14.50;10.63;;;8.70;1.00;;;;;;5061563;28;20464;-60
2023/03/22 04:32:28;;;;;;;13.60;9.90;;;8.60;1.00;;;;;;5078213;28;20461;-60
2023/03/22 04:34:55;;;;;;;12.07;9.23;;;8.70;1.00;;;;;;5077873;28;20468;-60
2023/03/22 04:37:23;;;;;;;15.83;9.70;;;8.70;1.00;;;;;;5072642;28;20450;-61
2023/03/22 04:39:50;;;;;;;11.37;9.20;;;8.70;1.00;;;;;;5057847;28;20436;-60
2023/03/22 04:42:17;;;;;;;11.07;9.43;;;8.70;1.00;;;;;;5074324;28;20457;-58
2023/03/22 04:44:44;;;;;;;12.70;9.87;;;8.70;1.00;;;;;;5076975;28;20457;-60
2023/03/22 04:47:11;;;;;;;12.30;10.40;;;8.70;1.00;;;;;;5077752;28;20551;-60
2023/03/22 04:49:40;;;;;;;11.30;9.50;;;8.70;1.00;;;;;;5077916;28;20865;-59
2023/03/22 04:52:07;;;;;;;15.03;11.53;;;8.70;1.00;;;;;;5076603;28;20526;-57
2023/03/22 04:54:34;;;;;;;17.43;11.23;;;8.70;1.00;;;;;;5078621;28;20458;-59
2023/03/22 04:57:02;;;;;;;13.10;10.27;;;8.70;1.00;;;;;;5079463;28;20468;-59
2023/03/22 04:59:29;;;;;;;12.20;9.83;;;8.80;1.00;;;;;;5082484;28;20460;-60
2023/03/22 05:01:56;;;;;;;15.40;9.57;;;8.80;1.00;;;;;;5078589;28;20461;-62
2023/03/22 05:04:23;;;;;;;15.93;10.30;;;8.80;1.00;;;;;;5082141;28;20460;-60
2023/03/22 05:06:52;;;;;;;15.53;10.60;;;8.90;1.00;;;;;;5081686;28;20917;-57
2023/03/22 05:09:19;;;;;;;17.80;10.30;;;8.90;1.00;;;;;;5080938;28;20464;-58
2023/03/22 05:11:46;;;;;;;13.80;11.30;;;8.90;1.00;;;;;;5081016;28;20461;-60
2023/03/22 05:14:14;;;;;;;12.53;10.33;;;8.80;1.00;;;;;;5060073;28;20462;-60
2023/03/22 05:16:41;;;;;;;14.57;10.77;;;8.80;1.00;;;;;;5061169;28;20454;-58
2023/03/22 05:19:12;;;;;;;15.13;10.13;;;8.80;1.00;;;;;;5061605;28;20466;-61
2023/03/22 05:21:40;;;;;;;12.40;9.63;;;8.80;1.00;;;;;;5061973;28;20918;-60
2023/03/22 05:24:09;;;;;;;13.97;10.40;;;8.90;1.00;;;;;;5060308;28;21004;-58
2023/03/22 05:26:41;;;;;;;12.03;9.57;;;8.80;1.00;;;;;;5061770;28;20512;-58
2023/03/22 05:29:09;;;;;;;15.97;10.20;;;8.90;1.00;;;;;;5040604;28;20589;-59
2023/03/22 05:31:36;;;;;;;11.30;10.03;;;8.90;1.00;;;;;;5041260;28;20874;-59
2023/03/22 05:34:03;;;;;;;11.40;10.00;;;9.00;1.00;;;;;;5052258;28;20462;-57
2023/03/22 05:36:31;;;;;;;10.87;9.17;;;9.00;1.00;;;;;;5060699;28;20445;-58
2023/03/22 05:38:58;;;;;;;12.40;10.10;;;9.10;1.00;;;;;;5061640;28;20471;-58
2023/03/22 05:41:26;;;;;;;19.17;9.70;;;9.10;1.00;;;;;;5061070;28;20914;-61
2023/03/22 05:43:53;;;;;;;12.10;9.40;;;9.20;1.00;;;;;;5065523;28;20462;-57
2023/03/22 05:46:20;;;;;;;9.90;7.70;;;9.30;1.00;;;;;;5068950;28;20986;-60
2023/03/22 05:48:47;;;;;;;11.23;8.93;;;9.30;1.00;;;;;;5060459;28;20458;-59
2023/03/22 05:51:18;;;;;;;14.90;10.70;;;9.30;1.00;;;;;;5045656;28;20471;-59
2023/03/22 05:53:45;;;;;;;13.63;10.50;;;9.30;1.00;;;;;;5039643;28;20470;-57
2023/03/22 05:56:12;;;;;;;11.47;9.63;;;9.40;1.00;;;;;;5041123;28;20467;-60
2023/03/22 05:58:42;;;;;;;13.67;10.67;;;9.50;1.00;;;;;;5070341;28;20468;-56
2023/03/22 06:01:10;;;;;;;21.57;16.43;;;9.50;1.00;;;;;;5080719;28;20467;-60
2023/03/22 06:03:38;;;;;;;16.43;13.60;;;9.50;1.00;;;;;;5080393;28;20502;-60
2023/03/22 06:06:09;;;;;;;16.97;9.60;;;9.60;1.00;;;;;;5065119;28;20458;-57
2023/03/22 06:08:36;;;;;;;15.23;10.57;;;9.60;1.00;;;;;;5076990;28;20553;-59
2023/03/22 06:11:04;;;;;;;12.47;10.77;;;9.70;1.00;;;;;;5080095;28;20462;-59
2023/03/22 06:13:31;;;;;;;21.57;12.17;;;9.70;1.00;;;;;;5081418;28;20461;-58
2023/03/22 06:16:01;;;;;;;10.57;9.47;;;9.70;1.00;;;;;;5063852;28;20911;-61
2023/03/22 06:18:28;;;;;;;10.33;7.53;;;9.70;1.00;;;;;;5064119;28;20468;-59
2023/03/22 06:20:55;;;;;;;11.60;8.40;;;9.80;1.00;;;;;;5065133;28;20475;-57
2023/03/22 06:23:22;;;;;;;14.30;9.07;;;9.90;1.00;;;;;;5055353;28;20470;-56
2023/03/22 06:25:49;;;;;;;17.40;9.07;;;9.90;1.00;;;;;;5057358;28;20478;-59
2023/03/22 06:28:16;;;;;;;13.63;8.73;;;10.00;1.00;;;;;;5059710;28;20497;-58
2023/03/22 06:30:44;;;;;;;8.43;7.53;;;10.00;1.00;;;;;;5045871;28;20442;-58
2023/03/22 06:33:12;;;;;;;10.30;7.57;;;10.10;1.00;;;;;;5052991;28;20470;-59
2023/03/22 06:35:39;;;;;;;14.20;8.33;;;10.10;1.00;;;;;;5059117;28;20478;-60
2023/03/22 06:38:06;;;;;;;14.17;7.80;;;10.10;1.00;;;;;;5058102;28;20485;-56
2023/03/22 06:40:34;;;;;;;13.40;8.20;;;10.20;1.00;;;;;;5059018;28;20462;-58
2023/03/22 06:43:02;;;;;;;9.47;7.70;;;10.20;1.00;;;;;;5059144;28;20493;-59
2023/03/22 06:45:32;;;;;;;11.83;8.53;;;10.20;1.00;;;;;;5058423;28;20899;-57
2023/03/22 06:47:59;;;;;;;9.77;7.60;;;10.30;1.00;;;;;;5058088;28;20490;-58
2023/03/22 06:50:28;;;;;;;12.10;7.47;;;10.30;1.00;;;;;;5057304;28;20440;-58
2023/03/22 06:52:55;;;;;;;11.10;7.70;;;10.40;1.00;;;;;;5050273;28;20803;-59
2023/03/22 06:55:22;;;;;;;9.50;6.60;;;10.30;1.00;;;;;;5057827;28;20469;-58
2023/03/22 06:57:50;;;;;;;8.67;6.33;;;10.30;1.00;;;;;;5058877;28;20450;-56
2023/03/22 07:00:17;;;;;;;11.27;6.50;;;10.40;1.00;;;;;;5057594;28;20466;-59
2023/03/22 07:02:44;;;;;;;11.40;7.40;;;10.40;1.00;;;;;;5055318;28;20472;-54
2023/03/22 07:05:12;;;;;;;14.27;6.80;;;10.50;1.00;;;;;;5056981;28;20531;-60
2023/03/22 07:07:40;;;;;;;7.47;6.10;;;10.70;1.00;;;;;;5055853;28;20497;-58
2023/03/22 07:10:08;;;;;;;8.27;5.80;;;10.70;1.00;;;;;;5055623;28;20781;-56
2023/03/22 07:12:35;;;;;;;7.93;5.77;;;10.90;1.00;;;;;;5062041;28;20462;-57
2023/03/22 07:15:06;;;;;;;8.53;5.50;;;11.10;99.90;;;;;;5057211;28;20547;-58
2023/03/22 07:17:33;;;;;;;8.40;5.13;;;11.20;99.90;;;;;;5056139;28;20463;-59
2023/03/22 07:20:00;;;;;;;9.57;5.50;;;11.30;99.90;;;;;;5054579;28;20477;-58
2023/03/22 07:22:27;;;;;;;11.50;6.87;;;11.50;99.90;;;;;;5057986;28;20454;-58
2023/03/22 07:24:56;;;;;;;11.03;7.80;;;11.50;99.90;;;;;;5066139;28;20460;-58
2023/03/22 07:27:23;;;;;;;18.73;10.23;;;11.50;99.90;;;;;;5060833;28;20490;-58
2023/03/22 07:29:50;;;;;;;6.93;5.10;;;11.40;99.90;;;;;;5058347;28;20814;-60
2023/03/22 07:32:17;;;;;;;6.43;4.77;;;11.40;99.90;;;;;;5059078;28;20466;-58
2023/03/22 07:34:44;;;;;;;16.17;9.23;;;11.40;99.90;;;;;;5060860;28;20465;-58
2023/03/22 07:37:11;;;;;;;5.80;4.67;;;11.50;99.90;;;;;;5059835;28;20474;-60
2023/03/22 07:39:38;;;;;;;10.40;5.00;;;11.50;99.90;;;;;;5055926;28;20462;-56
2023/03/22 07:42:08;;;;;;;15.97;8.03;;;11.90;99.90;;;;;;5060723;28;20457;-55
2023/03/22 07:44:35;;;;;;;8.77;4.60;;;12.20;99.90;;;;;;5048783;28;20486;-57
2023/03/22 07:47:02;;;;;;;8.97;4.13;;;12.30;99.90;;;;;;5050014;28;20536;-55
2023/03/22 07:49:30;;;;;;;10.87;4.80;;;12.40;99.90;;;;;;5054835;28;20469;-57
2023/03/22 07:51:57;;;;;;;8.60;4.20;;;12.50;99.90;;;;;;5041414;28;20470;-51
2023/03/22 07:54:24;;;;;;;5.57;4.17;;;12.80;99.90;;;;;;5075297;28;20463;-53
2023/03/22 07:56:51;;;;;;;7.63;4.00;;;13.20;99.90;;;;;;5074311;28;20453;-53
2023/03/22 07:59:20;;;;;;;5.90;3.50;;;13.30;99.90;;;;;;5075657;28;20468;-54
2023/03/22 08:01:47;;;;;;;6.13;3.83;;;13.40;99.90;;;;;;5075998;28;20461;-55
2023/03/22 08:04:14;;;;;;;7.60;4.80;;;13.50;99.90;;;;;;5059608;28;20462;-55
2023/03/22 08:06:42;;;;;;;6.10;3.47;;;13.60;99.90;;;;;;5046162;28;20560;-53
2023/03/22 08:09:10;;;;;;;6.20;3.97;;;13.50;99.90;;;;;;5045683;28;20473;-55
2023/03/22 08:11:37;;;;;;;5.83;3.90;;;13.20;99.90;;;;;;5035926;28;20466;-56
2023/03/22 08:14:04;;;;;;;7.30;4.37;;;13.00;99.90;;;;;;5053988;28;20935;-56
2023/03/22 08:16:33;;;;;;;5.33;3.90;;;12.70;99.90;;;;;;5071308;28;20461;-58
2023/03/22 08:19:00;;;;;;;7.30;3.97;;;12.70;99.90;;;;;;5072618;28;20972;-59
2023/03/22 08:21:27;;;;;;;8.43;4.70;;;12.50;99.90;;;;;;5072580;28;20461;-58
2023/03/22 08:23:54;;;;;;;5.87;3.90;;;12.50;99.90;;;;;;5068351;28;20884;-58
2023/03/22 08:26:22;;;;;;;8.60;3.67;;;12.50;99.90;;;;;;5053503;28;20465;-54
2023/03/22 08:28:49;;;;;;;7.33;3.83;;;12.70;99.90;;;;;;5052923;28;20490;-53
2023/03/22 08:31:17;;;;;;;6.20;3.83;;;12.90;99.90;;;;;;5055722;28;20800;-52
2023/03/22 08:33:46;;;;;;;13.20;4.20;;;13.20;99.90;;;;;;5059299;28;20462;-53
2023/03/22 08:36:16;;;;;;;7.60;4.00;;;13.30;99.90;;;;;;5078532;28;20464;-54
2023/03/22 08:38:44;;;;;;;9.00;3.93;;;13.40;99.90;;;;;;5079827;28;20496;-56
2023/03/22 08:41:11;;;;;;;4.97;2.90;;;13.20;99.90;;;;;;5079638;28;20504;-54
2023/03/22 08:43:38;;;;;;;5.17;3.10;;;13.20;99.90;;;;;;5079609;28;20468;-52
2023/03/22 08:46:06;;;;;;;8.57;3.97;;;13.10;99.90;;;;;;5064980;28;20472;-57
2023/03/22 08:48:34;;;;;;;6.20;4.30;;;13.10;99.90;;;;;;5059432;28;20490;-56
2023/03/22 08:51:03;;;;;;;6.93;3.33;;;13.20;99.90;;;;;;5059920;28;20570;-57
2023/03/22 08:53:30;;;;;;;4.83;3.13;;;13.00;99.90;;;;;;5058054;28;20899;-53
2023/03/22 08:56:00;;;;;;;8.10;3.90;;;13.20;99.90;;;;;;5069381;28;20751;-51
2023/03/22 08:58:27;;;;;;;4.23;2.93;;;13.20;99.90;;;;;;5055330;28;20583;-53
2023/03/22 09:00:54;;;;;;;7.57;3.60;;;13.20;99.90;;;;;;5056864;28;20466;-58
2023/03/22 09:03:22;;;;;;;5.90;3.60;;;13.20;99.90;;;;;;5057989;28;20458;-56
2023/03/22 09:05:49;;;;;;;6.33;3.87;;;13.50;99.90;;;;;;5059695;28;21088;-59
2023/03/22 09:08:18;;;;;;;6.30;3.50;;;13.90;99.90;;;;;;5060112;28;20957;-58
2023/03/22 09:10:46;;;;;;;7.13;3.80;;;14.10;99.90;;;;;;5059870;28;20521;-59
2023/03/22 09:13:15;;;;;;;5.40;3.30;;;14.10;99.90;;;;;;5058476;28;20560;-56
2023/03/22 09:15:43;;;;;;;4.97;3.77;;;14.00;99.90;;;;;;5063887;28;20447;-57
2023/03/22 09:18:11;;;;;;;5.50;3.73;;;14.30;99.90;;;;;;5060398;28;20458;-56
2023/03/22 09:20:38;;;;;;;3.90;3.13;;;14.50;99.90;;;;;;5059510;28;20514;-58
2023/03/22 09:23:05;;;;;;;5.60;3.70;;;14.70;99.90;;;;;;5059128;28;20466;-58
2023/03/22 09:25:34;;;;;;;7.10;3.20;;;15.30;99.90;;;;;;5060566;28;20466;-56
2023/03/22 09:28:01;;;;;;;10.13;3.30;;;15.50;99.90;;;;;;5060097;28;20505;-60
2023/03/22 09:30:28;;;;;;;4.73;3.57;;;15.60;99.90;;;;;;5060448;28;20485;-57
2023/03/22 09:32:55;;;;;;;7.73;3.40;;;15.70;99.90;;;;;;5059593;28;20466;-56
2023/03/22 09:35:22;;;;;;;7.20;2.93;;;15.80;99.90;;;;;;5058193;28;20458;-59
2023/03/22 09:37:52;;;;;;;4.53;3.10;;;15.70;99.90;;;;;;5058178;28;20485;-59
2023/03/22 09:40:19;;;;;;;3.03;2.50;;;15.70;99.90;;;;;;5056239;28;20488;-56
2023/03/22 09:42:51;;;;;;;5.10;2.37;;;15.10;99.90;;;;;;5059693;28;20450;-59
2023/03/22 09:45:23;;;;;;;4.20;2.80;;;14.80;99.90;;;;;;5059199;28;20500;-61
2023/03/22 09:47:54;;;;;;;5.60;2.50;;;14.90;99.90;;;;;;5068045;28;20485;-61
2023/03/22 09:50:25;;;;;;;4.37;2.40;;;15.30;99.90;;;;;;5061782;28;20462;-54
2023/03/22 09:52:53;;;;;;;2.80;2.03;;;15.50;99.90;;;;;;5057563;28;20466;-59
2023/03/22 09:55:26;;;;;;;4.00;2.10;;;15.60;99.90;;;;;;5057125;28;20465;-58
2023/03/22 09:58:02;;;;;;;4.13;2.60;;;15.60;99.90;;;;;;5051962;28;20476;-58
2023/03/22 10:00:39;;;;;;;5.60;2.90;;;15.90;99.90;;;;;;5078378;28;20471;-61
2023/03/22 10:03:19;;;;;;;5.47;2.83;;;15.60;99.90;;;;;;5067393;28;20785;-57
2023/03/22 10:05:53;;;;;;;5.33;2.70;;;15.00;99.90;;;;;;5058122;28;20543;-60
2023/03/22 10:08:32;;;;;;;6.00;2.70;;;14.80;99.90;;;;;;5058244;28;20482;-60
2023/03/22 10:11:00;;;;;;;3.33;2.23;;;14.40;99.90;;;;;;5057519;28;20461;-60
2023/03/22 10:13:35;;;;;;;2.87;2.57;;;14.10;99.90;;;;;;5057951;28;20734;-61
2023/03/22 10:16:06;;;;;;;3.50;2.20;;;13.80;99.90;;;;;;5058641;28;20457;-59
2023/03/22 10:18:37;;;;;;;3.90;2.57;;;13.80;99.90;;;;;;5061074;28;20459;-58
2023/03/22 10:21:07;;;;;;;4.30;2.10;;;13.80;99.90;;;;;;5077844;28;20547;-61
2023/03/22 10:23:39;;;;;;;2.83;2.10;;;13.90;99.90;;;;;;5079438;28;20465;-58
2023/03/22 10:26:08;;;;;;;3.40;2.47;;;13.90;99.90;;;;;;5079671;28;20461;-60
2023/03/22 10:28:39;;;;;;;4.43;2.40;;;13.90;99.90;;;;;;5078622;28;20482;-59
2023/03/22 10:31:13;;;;;;;5.23;2.53;;;13.90;99.90;;;;;;5072128;28;20770;-59
2023/03/22 10:33:49;;;;;;;3.63;2.30;;;13.70;99.90;;;;;;5057661;28;20478;-60
2023/03/22 10:36:18;;;;;;;5.83;2.50;;;13.80;99.90;;;;;;5059696;28;20441;-59
2023/03/22 10:38:49;;;;;;;4.30;2.23;;;13.90;99.90;;;;;;5059238;28;20805;-59
2023/03/22 10:41:18;;;;;;;4.10;2.07;;;14.20;99.90;;;;;;5074990;28;20472;-58
2023/03/22 10:43:50;;;;;;;4.93;2.13;;;14.60;99.90;;;;;;5079226;28;20461;-59
2023/03/22 10:46:21;;;;;;;3.13;2.33;;;14.70;99.90;;;;;;5080024;28;20472;-60
2023/03/22 10:48:51;;;;;;;3.23;2.13;;;14.80;99.90;;;;;;5079079;28;20493;-59
2023/03/22 10:51:27;;;;;;;4.57;2.40;;;14.80;99.90;;;;;;5069762;28;20466;-60
2023/03/22 10:53:57;;;;;;;3.83;1.87;;;14.90;99.90;;;;;;5057354;28;20769;-62
2023/03/22 10:56:24;;;;;;;4.20;2.90;;;15.00;99.90;;;;;;5062273;28;20526;-60
2023/03/22 10:58:55;;;;;;;6.03;2.23;;;15.00;99.90;;;;;;5060987;28;20600;-60
2023/03/22 11:01:28;;;;;;;2.80;1.90;;;15.00;99.90;;;;;;5058352;28;20560;-60
2023/03/22 11:03:58;;;;;;;5.87;2.80;;;15.20;99.90;;;;;;5055777;28;20465;-61
2023/03/22 11:06:28;;;;;;;3.20;2.50;;;15.10;99.90;;;;;;5057254;28;20458;-59
2023/03/22 11:09:00;;;;;;;3.63;2.53;;;15.10;99.90;;;;;;5056529;28;20497;-57
2023/03/22 11:11:31;;;;;;;2.93;2.33;;;15.10;99.90;;;;;;5059677;28;20466;-60
2023/03/22 11:14:06;;;;;;;2.73;2.00;;;15.20;99.90;;;;;;5057856;28;20766;-58
2023/03/22 11:16:44;;;;;;;6.23;2.60;;;15.10;99.90;;;;;;5055225;28;20877;-56
2023/03/22 11:19:18;;;;;;;3.30;2.30;;;15.60;99.90;;;;;;5056687;28;20454;-60
2023/03/22 11:21:45;;;;;;;2.63;2.20;;;15.80;99.90;;;;;;5056798;28;20462;-56
2023/03/22 11:24:14;;;;;;;4.00;2.43;;;16.10;99.90;;;;;;5075807;28;20890;-60
2023/03/22 11:26:43;;;;;;;6.30;2.23;;;16.20;99.90;;;;;;5077293;28;20462;-59
2023/03/22 11:29:19;;;;;;;3.07;2.40;;;16.30;99.90;;;;;;5077461;28;20521;-61
2023/03/22 11:31:54;;;;;;;3.90;2.70;;;16.20;99.90;;;;;;5078448;28;20461;-61
2023/03/22 11:34:23;;;;;;;3.43;2.30;;;16.00;99.90;;;;;;5075749;28;20912;-60
2023/03/22 11:36:55;;;;;;;3.70;1.93;;;15.90;99.90;;;;;;5075686;28;20465;-59
2023/03/22 11:39:23;;;;;;;4.37;2.60;;;15.70;99.90;;;;;;5075399;28;20886;-61
2023/03/22 11:41:50;;;;;;;3.73;2.17;;;15.60;99.90;;;;;;5075134;28;20457;-61
2023/03/22 11:44:21;;;;;;;5.30;2.70;;;15.20;99.90;;;;;;5074803;28;20461;-60
2023/03/22 11:46:59;;;;;;;3.80;2.60;;;14.80;99.90;;;;;;5075043;28;20484;-61
2023/03/22 11:49:34;;;;;;;4.73;2.40;;;14.40;99.90;;;;;;5057948;28;20540;-61
2023/03/22 11:52:08;;;;;;;3.53;2.37;;;14.50;99.90;;;;;;5056944;28;20468;-58
2023/03/22 11:54:36;;;;;;;3.63;2.33;;;14.70;99.90;;;;;;5056867;28;20465;-64
2023/03/22 11:57:09;;;;;;;5.93;4.13;;;14.40;99.90;;;;;;5056910;28;20465;-59
2023/03/22 11:59:40;;;;;;;3.50;2.33;;;14.10;99.90;;;;;;5056033;28;20462;-61
2023/03/22 12:02:17;;;;;;;6.13;2.93;;;14.00;99.90;;;;;;5058937;28;20458;-60
2023/03/22 12:04:46;;;;;;;3.60;2.57;;;13.70;99.90;;;;;;5064742;28;20474;-59
2023/03/22 12:07:16;;;;;;;3.27;2.63;;;13.70;99.90;;;;;;5056198;28;20462;-61
2023/03/22 12:09:49;;;;;;;2.50;2.30;;;13.50;99.90;;;;;;5057315;28;20494;-61
2023/03/22 12:12:20;;;;;;;4.17;2.93;;;13.30;99.90;;;;;;5057733;28;20440;-59
2023/03/22 12:14:54;;;;;;;2.23;2.03;;;13.30;99.90;;;;;;5062604;28;20461;-61
2023/03/22 12:17:30;;;;;;;3.50;2.40;;;13.30;99.90;;;;;;5056862;28;20891;-61
2023/03/22 12:20:07;;;;;;;2.53;2.33;;;13.40;99.90;;;;;;5057249;28;20509;-61
2023/03/22 12:22:38;;;;;;;7.27;2.27;;;13.40;99.90;;;;;;5057130;28;20466;-61
2023/03/22 12:25:14;;;;;;;2.80;2.00;;;13.50;99.90;;;;;;5058378;28;20469;-61
2023/03/22 12:27:45;;;;;;;2.80;2.00;;;13.50;99.90;;;;;;5055013;28;20479;-60
2023/03/22 12:30:18;;;;;;;5.70;2.10;;;13.50;99.90;;;;;;5057128;28;20501;-61
2023/03/22 12:32:49;;;;;;;3.67;2.23;;;13.60;99.90;;;;;;5055770;28;20462;-60
2023/03/22 12:35:21;;;;;;;3.70;2.17;;;13.50;99.90;;;;;;5056275;28;20509;-61
2023/03/22 12:37:52;;;;;;;5.57;2.47;;;13.40;99.90;;;;;;5056313;28;20474;-60
2023/03/22 12:40:24;;;;;;;3.17;2.17;;;13.40;99.90;;;;;;5055252;28;20879;-60
2023/03/22 12:42:59;;;;;;;5.83;2.70;;;13.40;99.90;;;;;;5054998;28;20466;-61
2023/03/22 12:45:31;;;;;;;4.10;2.50;;;13.50;99.90;;;;;;5055827;28;20458;-62
2023/03/22 12:48:03;;;;;;;3.23;2.30;;;13.50;99.90;;;;;;5053744;28;20677;-57
2023/03/22 12:50:36;;;;;;;3.50;2.20;;;13.50;99.90;;;;;;5051628;28;20446;-55
2023/03/22 12:53:04;;;;;;;4.23;2.73;;;13.50;99.90;;;;;;5050581;28;20459;-62
2023/03/22 12:55:33;;;;;;;5.30;3.00;;;13.40;99.90;;;;;;5053409;28;20466;-58
2023/03/22 12:58:00;;;;;;;3.17;2.67;;;13.30;99.90;;;;;;5050054;28;20463;-60
2023/03/22 13:00:36;;;;;;;5.53;2.23;;;13.50;99.90;;;;;;5049468;28;20439;-61
2023/03/22 13:03:08;;;;;;;4.83;2.20;;;13.60;99.90;;;;;;5049986;28;20457;-58